sensor_id;sensor_type;location;lat;lon;timestamp;P1;durP1;ratioP1;P2;durP2;ratioP2
60722;SDS011;46574;52.818;6.516;2023-03-14T00:01:22;16.50;;;4.20;;
60722;SDS011;46574;52.818;6.516;2023-03-14T00:03:48;15.45;;;4.13;;
60722;SDS011;46574;52.818;6.516;2023-03-14T00:06:15;17.58;;;4.75;;
60722;SDS011;46574;52.818;6.516;2023-03-14T00:08:42;13.93;;;4.40;;
60722;SDS011;46574;52.818;6.516;2023-03-14T00:11:09;15.23;;;4.70;;
60722;SDS011;46574;52.818;6.516;2023-03-14T00:13:40;15.40;;;4.75;;
60722;SDS011;46574;52.818;6.516;2023-03-14T00:16:12;13.88;;;4.07;;
60722;SDS011;46574;52.818;6.516;2023-03-14T00:18:38;14.55;;;4.35;;
60722;SDS011;46574;52.818;6.516;2023-03-14T00:21:05;13.73;;;5.25;;
60722;SDS011;46574;52.818;6.516;2023-03-14T00:23:33;14.13;;;4.60;;
60722;SDS011;46574;52.818;6.516;2023-03-14T00:26:01;14.73;;;4.60;;
60722;SDS011;46574;52.818;6.516;2023-03-14T00:28:28;12.60;;;4.50;;
60722;SDS011;46574;52.818;6.516;2023-03-14T00:30:54;19.17;;;4.50;;
60722;SDS011;46574;52.818;6.516;2023-03-14T00:33:20;16.65;;;4.90;;
60722;SDS011;46574;52.818;6.516;2023-03-14T00:35:55;15.65;;;5.15;;
60722;SDS011;46574;52.818;6.516;2023-03-14T00:38:22;15.45;;;4.57;;
60722;SDS011;46574;52.818;6.516;2023-03-14T00:40:49;17.27;;;5.00;;
60722;SDS011;46574;52.818;6.516;2023-03-14T00:43:16;16.48;;;4.10;;
60722;SDS011;46574;52.818;6.516;2023-03-14T00:45:42;18.08;;;4.63;;
60722;SDS011;46574;52.818;6.516;2023-03-14T00:48:07;15.90;;;4.30;;
60722;SDS011;46574;52.818;6.516;2023-03-14T00:50:36;16.65;;;4.38;;
60722;SDS011;46574;52.818;6.516;2023-03-14T00:53:01;17.77;;;4.82;;
60722;SDS011;46574;52.818;6.516;2023-03-14T00:55:27;13.60;;;4.80;;
60722;SDS011;46574;52.818;6.516;2023-03-14T00:57:53;14.55;;;5.03;;
60722;SDS011;46574;52.818;6.516;2023-03-14T01:00:18;11.82;;;5.20;;
60722;SDS011;46574;52.818;6.516;2023-03-14T01:02:44;11.45;;;5.13;;
60722;SDS011;46574;52.818;6.516;2023-03-14T01:05:09;18.08;;;5.90;;
60722;SDS011;46574;52.818;6.516;2023-03-14T01:07:36;14.32;;;5.70;;
60722;SDS011;46574;52.818;6.516;2023-03-14T01:10:02;12.07;;;5.07;;
60722;SDS011;46574;52.818;6.516;2023-03-14T01:12:28;9.50;;;5.43;;
60722;SDS011;46574;52.818;6.516;2023-03-14T01:14:54;16.13;;;5.50;;
60722;SDS011;46574;52.818;6.516;2023-03-14T01:17:19;14.60;;;4.80;;
60722;SDS011;46574;52.818;6.516;2023-03-14T01:19:45;14.68;;;5.47;;
60722;SDS011;46574;52.818;6.516;2023-03-14T01:22:11;13.77;;;5.80;;
60722;SDS011;46574;52.818;6.516;2023-03-14T01:24:37;13.63;;;4.90;;
60722;SDS011;46574;52.818;6.516;2023-03-14T01:27:03;15.40;;;5.50;;
60722;SDS011;46574;52.818;6.516;2023-03-14T01:29:28;16.00;;;5.65;;
60722;SDS011;46574;52.818;6.516;2023-03-14T01:31:54;12.57;;;4.47;;
60722;SDS011;46574;52.818;6.516;2023-03-14T01:34:19;11.95;;;4.25;;
60722;SDS011;46574;52.818;6.516;2023-03-14T01:36:45;14.40;;;4.50;;
60722;SDS011;46574;52.818;6.516;2023-03-14T01:39:11;11.30;;;4.40;;
60722;SDS011;46574;52.818;6.516;2023-03-14T01:41:38;16.33;;;5.60;;
60722;SDS011;46574;52.818;6.516;2023-03-14T01:44:04;13.95;;;4.00;;
60722;SDS011;46574;52.818;6.516;2023-03-14T01:46:43;13.02;;;4.47;;
60722;SDS011;46574;52.818;6.516;2023-03-14T01:49:13;13.13;;;4.70;;
60722;SDS011;46574;52.818;6.516;2023-03-14T01:51:59;12.40;;;4.25;;
60722;SDS011;46574;52.818;6.516;2023-03-14T01:54:34;12.95;;;4.35;;
60722;SDS011;46574;52.818;6.516;2023-03-14T01:57:14;17.38;;;4.70;;
60722;SDS011;46574;52.818;6.516;2023-03-14T01:59:57;13.95;;;4.40;;
60722;SDS011;46574;52.818;6.516;2023-03-14T02:02:26;11.05;;;3.97;;
60722;SDS011;46574;52.818;6.516;2023-03-14T02:04:54;13.93;;;4.32;;
60722;SDS011;46574;52.818;6.516;2023-03-14T02:07:25;16.10;;;4.63;;
60722;SDS011;46574;52.818;6.516;2023-03-14T02:09:58;14.18;;;4.45;;
60722;SDS011;46574;52.818;6.516;2023-03-14T02:12:26;13.80;;;4.90;;
60722;SDS011;46574;52.818;6.516;2023-03-14T02:14:53;12.63;;;4.97;;
60722;SDS011;46574;52.818;6.516;2023-03-14T02:17:18;12.95;;;4.43;;
60722;SDS011;46574;52.818;6.516;2023-03-14T02:22:33;10.68;;;4.95;;
60722;SDS011;46574;52.818;6.516;2023-03-14T02:28:03;9.57;;;4.57;;
60722;SDS011;46574;52.818;6.516;2023-03-14T02:30:29;12.65;;;5.32;;
60722;SDS011;46574;52.818;6.516;2023-03-14T02:32:58;11.60;;;4.55;;
60722;SDS011;46574;52.818;6.516;2023-03-14T02:35:32;12.32;;;4.90;;
60722;SDS011;46574;52.818;6.516;2023-03-14T02:40:43;13.57;;;5.25;;
60722;SDS011;46574;52.818;6.516;2023-03-14T02:43:09;15.10;;;5.45;;
60722;SDS011;46574;52.818;6.516;2023-03-14T02:45:36;11.73;;;5.13;;
60722;SDS011;46574;52.818;6.516;2023-03-14T02:48:09;9.13;;;4.63;;
60722;SDS011;46574;52.818;6.516;2023-03-14T02:50:39;11.82;;;4.70;;
60722;SDS011;46574;52.818;6.516;2023-03-14T02:53:05;11.80;;;4.38;;
60722;SDS011;46574;52.818;6.516;2023-03-14T02:55:30;12.07;;;4.60;;
60722;SDS011;46574;52.818;6.516;2023-03-14T02:57:56;8.45;;;4.43;;
60722;SDS011;46574;52.818;6.516;2023-03-14T03:00:22;7.32;;;4.25;;
60722;SDS011;46574;52.818;6.516;2023-03-14T03:02:47;9.43;;;3.72;;
60722;SDS011;46574;52.818;6.516;2023-03-14T03:05:13;6.03;;;3.78;;
60722;SDS011;46574;52.818;6.516;2023-03-14T03:07:39;6.78;;;3.63;;
60722;SDS011;46574;52.818;6.516;2023-03-14T03:10:05;10.60;;;3.90;;
60722;SDS011;46574;52.818;6.516;2023-03-14T03:12:31;7.70;;;3.75;;
60722;SDS011;46574;52.818;6.516;2023-03-14T03:14:57;8.27;;;3.20;;
60722;SDS011;46574;52.818;6.516;2023-03-14T03:17:22;8.25;;;3.40;;
60722;SDS011;46574;52.818;6.516;2023-03-14T03:19:48;9.25;;;4.10;;
60722;SDS011;46574;52.818;6.516;2023-03-14T03:22:14;8.50;;;3.90;;
60722;SDS011;46574;52.818;6.516;2023-03-14T03:24:39;10.48;;;4.70;;
60722;SDS011;46574;52.818;6.516;2023-03-14T03:27:05;7.95;;;4.50;;
60722;SDS011;46574;52.818;6.516;2023-03-14T03:29:31;9.35;;;4.82;;
60722;SDS011;46574;52.818;6.516;2023-03-14T03:31:56;10.27;;;4.63;;
60722;SDS011;46574;52.818;6.516;2023-03-14T03:34:22;8.77;;;4.85;;
60722;SDS011;46574;52.818;6.516;2023-03-14T03:36:47;7.88;;;4.63;;
60722;SDS011;46574;52.818;6.516;2023-03-14T03:39:13;10.27;;;4.90;;
60722;SDS011;46574;52.818;6.516;2023-03-14T03:41:39;10.65;;;4.60;;
60722;SDS011;46574;52.818;6.516;2023-03-14T03:44:04;9.85;;;4.53;;
60722;SDS011;46574;52.818;6.516;2023-03-14T03:46:31;10.40;;;4.68;;
60722;SDS011;46574;52.818;6.516;2023-03-14T03:48:57;12.43;;;4.68;;
60722;SDS011;46574;52.818;6.516;2023-03-14T03:51:24;13.80;;;5.40;;
60722;SDS011;46574;52.818;6.516;2023-03-14T03:53:50;12.90;;;5.40;;
60722;SDS011;46574;52.818;6.516;2023-03-14T03:56:16;11.68;;;4.45;;
60722;SDS011;46574;52.818;6.516;2023-03-14T03:58:42;9.98;;;4.60;;
60722;SDS011;46574;52.818;6.516;2023-03-14T04:01:07;13.15;;;4.60;;
60722;SDS011;46574;52.818;6.516;2023-03-14T04:03:35;10.57;;;4.18;;
60722;SDS011;46574;52.818;6.516;2023-03-14T04:06:04;12.10;;;3.87;;
60722;SDS011;46574;52.818;6.516;2023-03-14T04:08:32;7.40;;;4.00;;
60722;SDS011;46574;52.818;6.516;2023-03-14T04:10:58;12.38;;;4.45;;
60722;SDS011;46574;52.818;6.516;2023-03-14T04:13:25;11.73;;;4.25;;
60722;SDS011;46574;52.818;6.516;2023-03-14T04:15:52;10.55;;;4.05;;
60722;SDS011;46574;52.818;6.516;2023-03-14T04:18:18;10.00;;;4.50;;
60722;SDS011;46574;52.818;6.516;2023-03-14T04:20:44;7.35;;;3.70;;
60722;SDS011;46574;52.818;6.516;2023-03-14T04:23:10;8.23;;;3.70;;
60722;SDS011;46574;52.818;6.516;2023-03-14T04:25:36;9.40;;;4.00;;
60722;SDS011;46574;52.818;6.516;2023-03-14T04:28:01;8.00;;;4.00;;
60722;SDS011;46574;52.818;6.516;2023-03-14T04:30:29;9.77;;;4.63;;
60722;SDS011;46574;52.818;6.516;2023-03-14T04:32:54;8.93;;;4.45;;
60722;SDS011;46574;52.818;6.516;2023-03-14T04:35:20;8.77;;;4.43;;
60722;SDS011;46574;52.818;6.516;2023-03-14T04:37:46;10.00;;;5.13;;
60722;SDS011;46574;52.818;6.516;2023-03-14T04:40:14;8.93;;;4.80;;
60722;SDS011;46574;52.818;6.516;2023-03-14T04:42:40;10.35;;;4.88;;
60722;SDS011;46574;52.818;6.516;2023-03-14T04:45:06;13.18;;;4.75;;
60722;SDS011;46574;52.818;6.516;2023-03-14T04:47:32;7.78;;;4.82;;
60722;SDS011;46574;52.818;6.516;2023-03-14T04:49:58;10.82;;;5.47;;
60722;SDS011;46574;52.818;6.516;2023-03-14T04:52:24;10.93;;;5.25;;
60722;SDS011;46574;52.818;6.516;2023-03-14T04:54:50;10.68;;;4.93;;
60722;SDS011;46574;52.818;6.516;2023-03-14T04:57:15;10.55;;;4.70;;
60722;SDS011;46574;52.818;6.516;2023-03-14T04:59:41;10.15;;;5.30;;
60722;SDS011;46574;52.818;6.516;2023-03-14T05:02:07;10.55;;;4.60;;
60722;SDS011;46574;52.818;6.516;2023-03-14T05:04:32;9.20;;;4.65;;
60722;SDS011;46574;52.818;6.516;2023-03-14T05:06:59;11.23;;;5.32;;
60722;SDS011;46574;52.818;6.516;2023-03-14T05:09:25;7.72;;;5.50;;
60722;SDS011;46574;52.818;6.516;2023-03-14T05:11:51;9.35;;;5.25;;
60722;SDS011;46574;52.818;6.516;2023-03-14T05:14:17;9.45;;;5.70;;
60722;SDS011;46574;52.818;6.516;2023-03-14T05:16:42;8.52;;;4.97;;
60722;SDS011;46574;52.818;6.516;2023-03-14T05:19:08;11.68;;;5.53;;
60722;SDS011;46574;52.818;6.516;2023-03-14T05:21:35;10.00;;;6.03;;
60722;SDS011;46574;52.818;6.516;2023-03-14T05:24:01;6.75;;;4.68;;
60722;SDS011;46574;52.818;6.516;2023-03-14T05:26:27;8.25;;;5.20;;
60722;SDS011;46574;52.818;6.516;2023-03-14T05:28:53;9.65;;;5.10;;
60722;SDS011;46574;52.818;6.516;2023-03-14T05:31:19;10.30;;;5.97;;
60722;SDS011;46574;52.818;6.516;2023-03-14T05:33:44;10.88;;;5.20;;
60722;SDS011;46574;52.818;6.516;2023-03-14T05:36:10;11.25;;;5.20;;
60722;SDS011;46574;52.818;6.516;2023-03-14T05:38:36;12.80;;;5.35;;
60722;SDS011;46574;52.818;6.516;2023-03-14T05:41:01;9.18;;;5.20;;
60722;SDS011;46574;52.818;6.516;2023-03-14T05:43:27;10.88;;;5.28;;
60722;SDS011;46574;52.818;6.516;2023-03-14T05:45:53;10.15;;;4.80;;
60722;SDS011;46574;52.818;6.516;2023-03-14T05:48:18;11.23;;;5.05;;
60722;SDS011;46574;52.818;6.516;2023-03-14T05:50:44;10.32;;;4.55;;
60722;SDS011;46574;52.818;6.516;2023-03-14T05:53:10;9.15;;;4.82;;
60722;SDS011;46574;52.818;6.516;2023-03-14T05:55:35;7.80;;;4.50;;
60722;SDS011;46574;52.818;6.516;2023-03-14T05:58:01;8.32;;;4.80;;
60722;SDS011;46574;52.818;6.516;2023-03-14T06:00:26;11.65;;;5.07;;
60722;SDS011;46574;52.818;6.516;2023-03-14T06:02:52;11.00;;;4.78;;
60722;SDS011;46574;52.818;6.516;2023-03-14T06:05:18;11.93;;;4.88;;
60722;SDS011;46574;52.818;6.516;2023-03-14T06:07:43;11.77;;;5.10;;
60722;SDS011;46574;52.818;6.516;2023-03-14T06:10:09;10.85;;;4.85;;
60722;SDS011;46574;52.818;6.516;2023-03-14T06:12:35;11.88;;;5.00;;
60722;SDS011;46574;52.818;6.516;2023-03-14T06:15:01;11.85;;;4.65;;
60722;SDS011;46574;52.818;6.516;2023-03-14T06:17:27;13.10;;;5.38;;
60722;SDS011;46574;52.818;6.516;2023-03-14T06:19:52;10.40;;;5.20;;
60722;SDS011;46574;52.818;6.516;2023-03-14T06:22:18;12.15;;;5.13;;
60722;SDS011;46574;52.818;6.516;2023-03-14T06:24:44;11.25;;;5.00;;
60722;SDS011;46574;52.818;6.516;2023-03-14T06:27:10;8.85;;;4.60;;
60722;SDS011;46574;52.818;6.516;2023-03-14T06:29:36;9.80;;;4.65;;
60722;SDS011;46574;52.818;6.516;2023-03-14T06:32:01;10.68;;;4.25;;
60722;SDS011;46574;52.818;6.516;2023-03-14T06:34:27;8.10;;;4.00;;
60722;SDS011;46574;52.818;6.516;2023-03-14T06:36:53;7.80;;;4.00;;
60722;SDS011;46574;52.818;6.516;2023-03-14T06:39:19;7.50;;;4.03;;
60722;SDS011;46574;52.818;6.516;2023-03-14T06:41:44;8.65;;;4.28;;
60722;SDS011;46574;52.818;6.516;2023-03-14T06:44:10;6.78;;;4.18;;
60722;SDS011;46574;52.818;6.516;2023-03-14T06:46:36;5.82;;;3.70;;
60722;SDS011;46574;52.818;6.516;2023-03-14T06:49:01;6.53;;;4.00;;
60722;SDS011;46574;52.818;6.516;2023-03-14T06:51:27;8.77;;;4.18;;
60722;SDS011;46574;52.818;6.516;2023-03-14T06:53:53;8.13;;;3.95;;
60722;SDS011;46574;52.818;6.516;2023-03-14T06:56:19;7.10;;;3.95;;
60722;SDS011;46574;52.818;6.516;2023-03-14T06:58:44;8.60;;;4.05;;
60722;SDS011;46574;52.818;6.516;2023-03-14T07:01:15;7.72;;;3.70;;
60722;SDS011;46574;52.818;6.516;2023-03-14T07:03:47;7.60;;;4.70;;
60722;SDS011;46574;52.818;6.516;2023-03-14T07:06:13;6.85;;;3.80;;
60722;SDS011;46574;52.818;6.516;2023-03-14T07:08:39;7.20;;;3.97;;
60722;SDS011;46574;52.818;6.516;2023-03-14T07:11:04;9.45;;;4.70;;
60722;SDS011;46574;52.818;6.516;2023-03-14T07:13:30;9.98;;;4.45;;
60722;SDS011;46574;52.818;6.516;2023-03-14T07:15:56;6.53;;;4.53;;
60722;SDS011;46574;52.818;6.516;2023-03-14T07:18:21;6.57;;;3.95;;
60722;SDS011;46574;52.818;6.516;2023-03-14T07:20:47;4.57;;;3.97;;
60722;SDS011;46574;52.818;6.516;2023-03-14T07:23:12;6.35;;;3.70;;
60722;SDS011;46574;52.818;6.516;2023-03-14T07:25:38;4.47;;;3.10;;
60722;SDS011;46574;52.818;6.516;2023-03-14T07:28:04;4.60;;;2.33;;
60722;SDS011;46574;52.818;6.516;2023-03-14T07:30:30;1.42;;;1.05;;
60722;SDS011;46574;52.818;6.516;2023-03-14T07:32:55;3.75;;;0.90;;
60722;SDS011;46574;52.818;6.516;2023-03-14T07:35:21;4.57;;;1.23;;
60722;SDS011;46574;52.818;6.516;2023-03-14T07:37:46;3.50;;;1.10;;
60722;SDS011;46574;52.818;6.516;2023-03-14T07:40:12;7.20;;;1.10;;
60722;SDS011;46574;52.818;6.516;2023-03-14T07:42:43;4.70;;;1.10;;
60722;SDS011;46574;52.818;6.516;2023-03-14T07:45:09;4.28;;;0.95;;
60722;SDS011;46574;52.818;6.516;2023-03-14T07:47:35;6.05;;;0.90;;
60722;SDS011;46574;52.818;6.516;2023-03-14T07:50:02;4.70;;;0.90;;
60722;SDS011;46574;52.818;6.516;2023-03-14T07:52:29;3.22;;;1.02;;
60722;SDS011;46574;52.818;6.516;2023-03-14T07:54:54;4.18;;;0.73;;
60722;SDS011;46574;52.818;6.516;2023-03-14T07:57:20;6.30;;;0.88;;
60722;SDS011;46574;52.818;6.516;2023-03-14T07:59:46;2.72;;;0.80;;
60722;SDS011;46574;52.818;6.516;2023-03-14T08:02:12;2.88;;;0.70;;
60722;SDS011;46574;52.818;6.516;2023-03-14T08:04:38;3.33;;;0.50;;
60722;SDS011;46574;52.818;6.516;2023-03-14T08:07:05;1.35;;;0.40;;
60722;SDS011;46574;52.818;6.516;2023-03-14T08:09:30;2.90;;;0.35;;
60722;SDS011;46574;52.818;6.516;2023-03-14T08:11:56;1.77;;;0.57;;
60722;SDS011;46574;52.818;6.516;2023-03-14T08:14:22;2.05;;;0.45;;
60722;SDS011;46574;52.818;6.516;2023-03-14T08:16:49;2.35;;;0.40;;
60722;SDS011;46574;52.818;6.516;2023-03-14T08:19:15;1.33;;;0.50;;
60722;SDS011;46574;52.818;6.516;2023-03-14T08:21:41;1.85;;;0.57;;
60722;SDS011;46574;52.818;6.516;2023-03-14T08:24:07;1.15;;;0.47;;
60722;SDS011;46574;52.818;6.516;2023-03-14T08:26:33;3.17;;;0.57;;
60722;SDS011;46574;52.818;6.516;2023-03-14T08:28:58;2.05;;;0.40;;
60722;SDS011;46574;52.818;6.516;2023-03-14T08:31:24;1.77;;;0.73;;
60722;SDS011;46574;52.818;6.516;2023-03-14T08:33:50;2.90;;;0.95;;
60722;SDS011;46574;52.818;6.516;2023-03-14T08:36:17;3.20;;;0.73;;
60722;SDS011;46574;52.818;6.516;2023-03-14T08:38:43;3.67;;;0.80;;
60722;SDS011;46574;52.818;6.516;2023-03-14T08:41:09;3.30;;;0.68;;
60722;SDS011;46574;52.818;6.516;2023-03-14T08:43:35;3.20;;;0.82;;
60722;SDS011;46574;52.818;6.516;2023-03-14T08:46:01;3.22;;;0.70;;
60722;SDS011;46574;52.818;6.516;2023-03-14T08:48:28;6.75;;;0.85;;
60722;SDS011;46574;52.818;6.516;2023-03-14T08:51:04;1.77;;;0.60;;
60722;SDS011;46574;52.818;6.516;2023-03-14T08:53:35;3.28;;;0.60;;
60722;SDS011;46574;52.818;6.516;2023-03-14T08:56:01;2.90;;;0.82;;
60722;SDS011;46574;52.818;6.516;2023-03-14T08:58:28;2.78;;;0.82;;
60722;SDS011;46574;52.818;6.516;2023-03-14T09:00:54;3.40;;;0.80;;
60722;SDS011;46574;52.818;6.516;2023-03-14T09:03:20;2.92;;;0.70;;
60722;SDS011;46574;52.818;6.516;2023-03-14T09:05:48;5.13;;;1.10;;
60722;SDS011;46574;52.818;6.516;2023-03-14T09:08:14;5.97;;;0.90;;
60722;SDS011;46574;52.818;6.516;2023-03-14T09:10:39;2.80;;;0.70;;
60722;SDS011;46574;52.818;6.516;2023-03-14T09:13:05;7.18;;;0.90;;
60722;SDS011;46574;52.818;6.516;2023-03-14T09:15:31;3.58;;;0.95;;
60722;SDS011;46574;52.818;6.516;2023-03-14T09:17:57;5.55;;;1.15;;
60722;SDS011;46574;52.818;6.516;2023-03-14T09:20:23;4.32;;;1.20;;
60722;SDS011;46574;52.818;6.516;2023-03-14T09:22:49;5.85;;;1.35;;
60722;SDS011;46574;52.818;6.516;2023-03-14T09:25:15;7.05;;;0.98;;
60722;SDS011;46574;52.818;6.516;2023-03-14T09:27:40;4.90;;;1.40;;
60722;SDS011;46574;52.818;6.516;2023-03-14T09:30:06;6.53;;;1.20;;
60722;SDS011;46574;52.818;6.516;2023-03-14T09:32:32;5.07;;;1.35;;
60722;SDS011;46574;52.818;6.516;2023-03-14T09:34:58;6.97;;;1.35;;
60722;SDS011;46574;52.818;6.516;2023-03-14T09:37:24;6.63;;;1.67;;
60722;SDS011;46574;52.818;6.516;2023-03-14T09:39:50;6.60;;;1.60;;
60722;SDS011;46574;52.818;6.516;2023-03-14T09:42:20;10.68;;;1.50;;
60722;SDS011;46574;52.818;6.516;2023-03-14T09:47:24;8.68;;;2.08;;
60722;SDS011;46574;52.818;6.516;2023-03-14T09:49:51;7.25;;;2.05;;
60722;SDS011;46574;52.818;6.516;2023-03-14T09:52:22;9.77;;;2.15;;
60722;SDS011;46574;52.818;6.516;2023-03-14T09:54:52;10.60;;;2.47;;
60722;SDS011;46574;52.818;6.516;2023-03-14T09:57:21;8.75;;;2.35;;
60722;SDS011;46574;52.818;6.516;2023-03-14T09:59:49;10.68;;;2.75;;
60722;SDS011;46574;52.818;6.516;2023-03-14T10:02:51;9.90;;;2.28;;
60722;SDS011;46574;52.818;6.516;2023-03-14T10:05:20;13.77;;;2.70;;
60722;SDS011;46574;52.818;6.516;2023-03-14T10:07:47;11.15;;;3.53;;
60722;SDS011;46574;52.818;6.516;2023-03-14T10:10:14;8.00;;;2.55;;
60722;SDS011;46574;52.818;6.516;2023-03-14T10:12:46;13.27;;;2.35;;
60722;SDS011;46574;52.818;6.516;2023-03-14T10:15:22;12.70;;;2.75;;
60722;SDS011;46574;52.818;6.516;2023-03-14T10:17:51;9.65;;;2.30;;
60722;SDS011;46574;52.818;6.516;2023-03-14T10:20:36;11.65;;;2.65;;
60722;SDS011;46574;52.818;6.516;2023-03-14T10:23:05;10.68;;;2.55;;
60722;SDS011;46574;52.818;6.516;2023-03-14T10:25:44;10.30;;;2.58;;
60722;SDS011;46574;52.818;6.516;2023-03-14T10:28:22;12.50;;;2.60;;
60722;SDS011;46574;52.818;6.516;2023-03-14T10:30:48;14.32;;;3.58;;
60722;SDS011;46574;52.818;6.516;2023-03-14T10:33:24;17.77;;;3.35;;
60722;SDS011;46574;52.818;6.516;2023-03-14T10:38:44;15.55;;;3.65;;
60722;SDS011;46574;52.818;6.516;2023-03-14T10:41:17;12.77;;;3.20;;
60722;SDS011;46574;52.818;6.516;2023-03-14T10:43:49;9.88;;;2.80;;
60722;SDS011;46574;52.818;6.516;2023-03-14T10:46:19;19.35;;;2.90;;
60722;SDS011;46574;52.818;6.516;2023-03-14T10:48:45;15.75;;;2.55;;
60722;SDS011;46574;52.818;6.516;2023-03-14T10:56:38;13.85;;;2.58;;
60722;SDS011;46574;52.818;6.516;2023-03-14T10:59:07;13.32;;;2.53;;
60722;SDS011;46574;52.818;6.516;2023-03-14T11:04:13;9.23;;;2.63;;
60722;SDS011;46574;52.818;6.516;2023-03-14T11:06:44;8.52;;;2.33;;
60722;SDS011;46574;52.818;6.516;2023-03-14T11:09:39;12.05;;;3.33;;
60722;SDS011;46574;52.818;6.516;2023-03-14T11:15:05;7.38;;;2.85;;
60722;SDS011;46574;52.818;6.516;2023-03-14T11:23:24;9.38;;;2.47;;
60722;SDS011;46574;52.818;6.516;2023-03-14T11:28:58;11.13;;;2.15;;
60722;SDS011;46574;52.818;6.516;2023-03-14T11:31:36;9.90;;;2.10;;
60722;SDS011;46574;52.818;6.516;2023-03-14T11:34:11;9.40;;;1.83;;
60722;SDS011;46574;52.818;6.516;2023-03-14T11:37:02;5.78;;;1.60;;
60722;SDS011;46574;52.818;6.516;2023-03-14T11:39:38;8.77;;;1.80;;
60722;SDS011;46574;52.818;6.516;2023-03-14T11:42:08;6.75;;;1.33;;
60722;SDS011;46574;52.818;6.516;2023-03-14T11:44:39;11.02;;;2.00;;
60722;SDS011;46574;52.818;6.516;2023-03-14T11:55:33;7.35;;;1.63;;
60722;SDS011;46574;52.818;6.516;2023-03-14T11:58:02;6.35;;;1.52;;
60722;SDS011;46574;52.818;6.516;2023-03-14T12:00:47;9.68;;;2.10;;
60722;SDS011;46574;52.818;6.516;2023-03-14T12:03:29;7.03;;;1.52;;
60722;SDS011;46574;52.818;6.516;2023-03-14T12:13:57;8.55;;;1.38;;
60722;SDS011;46574;52.818;6.516;2023-03-14T12:18:53;5.30;;;1.45;;
60722;SDS011;46574;52.818;6.516;2023-03-14T12:21:19;5.82;;;1.63;;
60722;SDS011;46574;52.818;6.516;2023-03-14T12:23:52;4.75;;;1.27;;
60722;SDS011;46574;52.818;6.516;2023-03-14T12:26:23;3.47;;;1.05;;
60722;SDS011;46574;52.818;6.516;2023-03-14T12:47:50;6.25;;;1.40;;
60722;SDS011;46574;52.818;6.516;2023-03-14T12:55:43;7.57;;;1.52;;
60722;SDS011;46574;52.818;6.516;2023-03-14T12:58:17;6.60;;;1.60;;
60722;SDS011;46574;52.818;6.516;2023-03-14T13:01:04;9.20;;;1.80;;
60722;SDS011;46574;52.818;6.516;2023-03-14T13:03:51;6.05;;;1.55;;
60722;SDS011;46574;52.818;6.516;2023-03-14T13:11:54;7.68;;;1.60;;
60722;SDS011;46574;52.818;6.516;2023-03-14T13:14:49;11.23;;;1.65;;
60722;SDS011;46574;52.818;6.516;2023-03-14T13:17:27;6.50;;;1.80;;
60722;SDS011;46574;52.818;6.516;2023-03-14T13:19:57;7.03;;;1.65;;
60722;SDS011;46574;52.818;6.516;2023-03-14T13:22:30;7.25;;;1.60;;
60722;SDS011;46574;52.818;6.516;2023-03-14T13:24:59;6.07;;;1.52;;
60722;SDS011;46574;52.818;6.516;2023-03-14T13:27:27;3.22;;;1.10;;
60722;SDS011;46574;52.818;6.516;2023-03-14T13:29:56;3.67;;;1.00;;
60722;SDS011;46574;52.818;6.516;2023-03-14T13:32:26;5.60;;;1.30;;
60722;SDS011;46574;52.818;6.516;2023-03-14T13:34:57;6.82;;;1.55;;
60722;SDS011;46574;52.818;6.516;2023-03-14T13:37:24;4.30;;;1.13;;
60722;SDS011;46574;52.818;6.516;2023-03-14T13:39:55;3.10;;;1.17;;
60722;SDS011;46574;52.818;6.516;2023-03-14T13:42:26;4.43;;;1.50;;
60722;SDS011;46574;52.818;6.516;2023-03-14T13:44:54;3.83;;;0.95;;
60722;SDS011;46574;52.818;6.516;2023-03-14T13:47:22;3.30;;;1.08;;
60722;SDS011;46574;52.818;6.516;2023-03-14T13:49:50;6.50;;;1.70;;
60722;SDS011;46574;52.818;6.516;2023-03-14T13:52:24;5.20;;;1.30;;
60722;SDS011;46574;52.818;6.516;2023-03-14T13:54:56;4.40;;;1.85;;
60722;SDS011;46574;52.818;6.516;2023-03-14T13:57:22;4.15;;;1.42;;
60722;SDS011;46574;52.818;6.516;2023-03-14T13:59:59;7.47;;;1.42;;
60722;SDS011;46574;52.818;6.516;2023-03-14T14:02:26;4.82;;;1.50;;
60722;SDS011;46574;52.818;6.516;2023-03-14T14:04:53;6.18;;;1.70;;
60722;SDS011;46574;52.818;6.516;2023-03-14T14:07:18;5.25;;;1.35;;
60722;SDS011;46574;52.818;6.516;2023-03-14T14:09:46;4.50;;;1.73;;
60722;SDS011;46574;52.818;6.516;2023-03-14T14:14:51;7.32;;;1.60;;
60722;SDS011;46574;52.818;6.516;2023-03-14T14:17:35;5.88;;;1.48;;
60722;SDS011;46574;52.818;6.516;2023-03-14T14:20:04;4.55;;;1.45;;
60722;SDS011;46574;52.818;6.516;2023-03-14T14:22:33;6.47;;;1.35;;
60722;SDS011;46574;52.818;6.516;2023-03-14T14:24:59;4.25;;;1.55;;
60722;SDS011;46574;52.818;6.516;2023-03-14T14:27:37;4.28;;;1.00;;
60722;SDS011;46574;52.818;6.516;2023-03-14T14:30:21;4.38;;;1.08;;
60722;SDS011;46574;52.818;6.516;2023-03-14T14:35:35;6.05;;;1.13;;
60722;SDS011;46574;52.818;6.516;2023-03-14T14:38:01;4.88;;;1.30;;
60722;SDS011;46574;52.818;6.516;2023-03-14T14:40:34;4.47;;;1.20;;
60722;SDS011;46574;52.818;6.516;2023-03-14T14:43:10;2.60;;;1.27;;
60722;SDS011;46574;52.818;6.516;2023-03-14T14:45:49;6.20;;;1.35;;
60722;SDS011;46574;52.818;6.516;2023-03-14T14:48:18;5.10;;;1.23;;
60722;SDS011;46574;52.818;6.516;2023-03-14T14:50:59;4.68;;;1.45;;
60722;SDS011;46574;52.818;6.516;2023-03-14T14:53:31;2.72;;;1.25;;
60722;SDS011;46574;52.818;6.516;2023-03-14T14:56:46;6.90;;;1.63;;
60722;SDS011;46574;52.818;6.516;2023-03-14T14:59:00;5.53;;;1.50;;
60722;SDS011;46574;52.818;6.516;2023-03-14T15:01:39;8.30;;;1.48;;
60722;SDS011;46574;52.818;6.516;2023-03-14T15:04:11;5.18;;;1.30;;
60722;SDS011;46574;52.818;6.516;2023-03-14T15:06:40;4.03;;;1.27;;
60722;SDS011;46574;52.818;6.516;2023-03-14T15:09:10;5.32;;;1.50;;
60722;SDS011;46574;52.818;6.516;2023-03-14T15:11:36;5.05;;;1.23;;
60722;SDS011;46574;52.818;6.516;2023-03-14T15:14:02;4.05;;;0.95;;
60722;SDS011;46574;52.818;6.516;2023-03-14T15:16:29;4.78;;;1.25;;
60722;SDS011;46574;52.818;6.516;2023-03-14T15:18:59;6.63;;;1.75;;
60722;SDS011;46574;52.818;6.516;2023-03-14T15:21:30;8.38;;;1.65;;
60722;SDS011;46574;52.818;6.516;2023-03-14T15:23:56;3.33;;;1.60;;
60722;SDS011;46574;52.818;6.516;2023-03-14T15:26:23;5.63;;;1.90;;
60722;SDS011;46574;52.818;6.516;2023-03-14T15:28:50;4.53;;;2.00;;
60722;SDS011;46574;52.818;6.516;2023-03-14T15:31:17;5.93;;;1.90;;
60722;SDS011;46574;52.818;6.516;2023-03-14T15:33:44;6.30;;;1.80;;
60722;SDS011;46574;52.818;6.516;2023-03-14T15:36:30;5.30;;;1.05;;
60722;SDS011;46574;52.818;6.516;2023-03-14T15:38:57;2.95;;;1.10;;
60722;SDS011;46574;52.818;6.516;2023-03-14T15:41:24;5.70;;;1.77;;
60722;SDS011;46574;52.818;6.516;2023-03-14T15:43:53;4.72;;;1.70;;
60722;SDS011;46574;52.818;6.516;2023-03-14T15:46:19;4.55;;;1.23;;
60722;SDS011;46574;52.818;6.516;2023-03-14T15:48:47;5.57;;;1.60;;
60722;SDS011;46574;52.818;6.516;2023-03-14T15:51:14;5.55;;;2.20;;
60722;SDS011;46574;52.818;6.516;2023-03-14T15:53:40;8.48;;;3.03;;
60722;SDS011;46574;52.818;6.516;2023-03-14T15:56:11;7.65;;;1.55;;
60722;SDS011;46574;52.818;6.516;2023-03-14T15:58:38;8.60;;;1.60;;
60722;SDS011;46574;52.818;6.516;2023-03-14T16:01:05;9.75;;;3.40;;
60722;SDS011;46574;52.818;6.516;2023-03-14T16:03:34;4.93;;;2.40;;
60722;SDS011;46574;52.818;6.516;2023-03-14T16:06:00;4.30;;;1.63;;
60722;SDS011;46574;52.818;6.516;2023-03-14T16:08:27;7.20;;;1.88;;
60722;SDS011;46574;52.818;6.516;2023-03-14T16:10:54;6.35;;;1.80;;
60722;SDS011;46574;52.818;6.516;2023-03-14T16:13:20;10.77;;;3.03;;
60722;SDS011;46574;52.818;6.516;2023-03-14T16:15:58;6.80;;;1.30;;
60722;SDS011;46574;52.818;6.516;2023-03-14T16:18:27;5.85;;;2.63;;